createdAt,value
2019-04-12T09:10:14.546Z,10.37
2019-04-12T14:34:47.905Z,11.10
2019-04-12T15:51:14.234Z,11.17
2019-04-12T16:10:26.062Z,10.80
2019-04-12T16:48:25.454Z,11.50
2019-04-12T16:51:30.162Z,10.90
2019-04-12T16:54:20.700Z,10.70
2019-04-12T16:57:51.923Z,11.20
2019-04-12T17:23:32.772Z,11.77
2019-04-12T17:34:14.213Z,11.67
2019-04-12T17:59:13.398Z,11.20
2019-04-12T18:02:38.934Z,11.87
2019-04-12T18:06:02.051Z,12.00
2019-04-12T18:09:48.316Z,11.87
2019-04-12T18:13:33.421Z,12.20
2019-04-12T18:23:48.666Z,12.63
2019-04-12T18:26:49.341Z,12.90
2019-04-12T18:30:17.288Z,11.60
2019-04-12T18:33:43.418Z,12.37
2019-04-12T18:37:07.089Z,11.47
2019-04-12T18:40:21.469Z,12.20
2019-04-12T18:43:45.962Z,13.60
2019-04-12T18:47:04.030Z,11.10
2019-04-12T18:50:02.616Z,11.87
2019-04-12T18:53:09.681Z,10.63
2019-04-12T18:56:02.162Z,12.30
2019-04-12T19:02:48.296Z,11.00
2019-04-12T19:09:14.205Z,11.87
2019-04-12T19:12:09.699Z,10.10
2019-04-12T19:15:02.491Z,11.27
2019-04-12T19:17:56.309Z,10.60
2019-04-12T19:20:54.580Z,11.07
2019-04-12T19:23:44.799Z,9.87
2019-04-12T19:26:48.995Z,10.47
2019-04-12T19:29:41.343Z,9.73
2019-04-12T19:32:52.272Z,10.20
2019-04-12T19:36:14.671Z,10.17
2019-04-12T19:39:40.191Z,9.77
2019-04-12T19:42:35.040Z,10.67
2019-04-12T19:48:50.210Z,9.10
2019-04-12T19:51:39.748Z,8.97
2019-04-12T19:54:40.077Z,8.40
2019-04-12T19:57:31.800Z,9.03
2019-04-12T20:00:24.240Z,9.30
2019-04-12T20:03:17.895Z,9.47
2019-04-12T20:06:28.567Z,9.20
2019-04-12T20:09:20.158Z,9.50
2019-04-12T20:12:18.233Z,10.00
2019-04-12T20:15:25.783Z,8.93
2019-04-12T20:18:18.735Z,8.80
2019-04-12T20:21:38.248Z,9.70
2019-04-12T20:24:37.191Z,9.40
2019-04-12T20:27:57.821Z,9.50
2019-04-12T20:31:28.888Z,9.63
2019-04-12T20:34:43.859Z,9.07
2019-04-12T20:37:43.201Z,9.43
2019-04-12T20:41:12.403Z,10.40
2019-04-12T20:53:41.523Z,10.30
2019-04-12T20:57:33.260Z,10.43
2019-04-12T21:01:20.673Z,8.83
2019-04-12T21:09:04.980Z,9.20
2019-04-12T21:12:28.156Z,9.80
2019-04-12T21:15:20.080Z,10.47
2019-04-12T21:18:24.693Z,9.30
2019-04-12T21:25:20.950Z,10.00
2019-04-12T21:28:10.462Z,9.60
2019-04-12T21:31:33.280Z,11.47
2019-04-12T21:34:29.708Z,10.30
2019-04-12T21:42:08.847Z,10.20
2019-04-12T21:45:13.777Z,9.60
2019-04-12T21:48:44.543Z,10.33
2019-04-12T21:55:33.072Z,10.27
2019-04-12T22:22:51.751Z,9.97
2019-04-12T22:29:03.195Z,11.30
2019-04-12T22:46:36.935Z,10.43
